Time;durP1;ratioP1;P1;durP2;ratioP2;P2;SDS_P1;SDS_P2;PMS_P1;PMS_P2;Temp;Humidity;BMP_temperature;BMP_pressure;BME280_temperature;BME280_humidity;BME280_pressure;Samples;Min_cycle;Max_cycle;Signal;HPM_P1;HPM_P2
2022/03/15 00:00:38;;;;;;;42.95;26.77;;;;;;;;;;2077936;28;20025;-61
2022/03/15 00:01:57;;;;;;;41.50;26.63;;;;;;;;;;2078725;28;20029;-62
2022/03/15 00:03:16;;;;;;;44.88;26.60;;;;;;;;;;2079257;28;20017;-61
2022/03/15 00:04:35;;;;;;;42.15;27.52;;;;;;;;;;2079174;28;20037;-64
2022/03/15 00:05:54;;;;;;;41.45;26.67;;;;;;;;;;2079905;28;20049;-63
2022/03/15 00:07:15;;;;;;;42.95;26.25;;;;;;;;;;2078980;28;20034;-60
2022/03/15 00:08:35;;;;;;;47.65;27.65;;;;;;;;;;2079433;28;20026;-62
2022/03/15 00:09:54;;;;;;;44.47;28.00;;;;;;;;;;2078970;28;20021;-61
2022/03/15 00:11:13;;;;;;;43.90;27.10;;;;;;;;;;2079220;28;20041;-62
2022/03/15 00:12:32;;;;;;;43.47;26.33;;;;;;;;;;2077751;28;20030;-62
2022/03/15 00:13:52;;;;;;;42.33;25.98;;;;;;;;;;2078602;28;20033;-61
2022/03/15 00:15:11;;;;;;;42.85;26.70;;;;;;;;;;2077842;28;20025;-61
2022/03/15 00:16:30;;;;;;;43.72;26.48;;;;;;;;;;2080309;28;20045;-63
2022/03/15 00:17:49;;;;;;;41.45;26.58;;;;;;;;;;2079174;28;20399;-62
2022/03/15 00:19:09;;;;;;;42.40;26.20;;;;;;;;;;2079345;28;20112;-62
2022/03/15 00:20:27;;;;;;;42.65;25.55;;;;;;;;;;2077985;28;20384;-63
2022/03/15 00:21:47;;;;;;;41.10;26.27;;;;;;;;;;2078482;28;20038;-62
2022/03/15 00:23:07;;;;;;;44.03;26.48;;;;;;;;;;2081148;28;20037;-62
2022/03/15 00:24:26;;;;;;;46.05;27.13;;;;;;;;;;2078391;28;20042;-62
2022/03/15 00:25:45;;;;;;;41.75;26.48;;;;;;;;;;2079419;28;20415;-62
2022/03/15 00:27:04;;;;;;;45.45;26.17;;;;;;;;;;2080344;28;20033;-62
2022/03/15 00:28:23;;;;;;;48.70;26.02;;;;;;;;;;2078878;28;20116;-63
2022/03/15 00:29:43;;;;;;;48.53;26.52;;;;;;;;;;2079588;28;20547;-60
2022/03/15 00:31:02;;;;;;;44.53;25.52;;;;;;;;;;2079578;28;20037;-62
2022/03/15 00:32:23;;;;;;;46.78;27.65;;;;;;;;;;2077489;28;20093;-65
2022/03/15 00:33:43;;;;;;;47.80;27.08;;;;;;;;;;2079544;28;20081;-63
2022/03/15 00:35:05;;;;;;;45.13;26.27;;;;;;;;;;2079623;28;20427;-62
2022/03/15 00:36:25;;;;;;;;;;;;;;;;;;2079121;28;20112;-62
2022/03/15 00:37:45;;;;;;;42.78;24.75;;;;;;;;;;2080864;28;19979;-62
2022/03/15 00:39:04;;;;;;;45.95;26.65;;;;;;;;;;2079663;28;20025;-62
2022/03/15 00:40:23;;;;;;;41.00;25.88;;;;;;;;;;2080481;28;20037;-62
2022/03/15 00:41:42;;;;;;;43.65;27.27;;;;;;;;;;2079780;28;20259;-62
2022/03/15 00:43:07;;;;;;;50.53;27.35;;;;;;;;;;2080369;28;20025;-63
2022/03/15 00:44:26;;;;;;;45.33;26.92;;;;;;;;;;2078335;28;20033;-62
2022/03/15 00:45:45;;;;;;;41.35;26.92;;;;;;;;;;2080533;28;20029;-64
2022/03/15 00:47:04;;;;;;;51.45;28.50;;;;;;;;;;2080878;28;20583;-62
2022/03/15 00:48:23;;;;;;;49.03;26.85;;;;;;;;;;2080426;28;20033;-62
2022/03/15 00:49:42;;;;;;;55.55;28.02;;;;;;;;;;2078340;28;20033;-61
2022/03/15 00:51:01;;;;;;;45.47;27.23;;;;;;;;;;2079269;28;20044;-63
2022/03/15 00:52:20;;;;;;;44.97;27.20;;;;;;;;;;2078519;28;20021;-61
2022/03/15 00:53:39;;;;;;;45.88;26.52;;;;;;;;;;2080209;28;20017;-61
2022/03/15 00:54:58;;;;;;;45.50;26.30;;;;;;;;;;2077900;28;20022;-62
2022/03/15 00:56:19;;;;;;;46.92;27.65;;;;;;;;;;2079106;28;20037;-62
2022/03/15 00:57:38;;;;;;;47.85;27.92;;;;;;;;;;2079645;28;20033;-62
2022/03/15 00:58:57;;;;;;;42.50;26.40;;;;;;;;;;2078292;28;20029;-61
2022/03/15 01:00:16;;;;;;;45.97;27.27;;;;;;;;;;2079462;28;20479;-62
2022/03/15 01:01:35;;;;;;;49.55;26.15;;;;;;;;;;2080375;28;20041;-62
2022/03/15 01:02:54;;;;;;;43.92;26.88;;;;;;;;;;2078310;28;20070;-62
2022/03/15 01:04:13;;;;;;;44.75;26.50;;;;;;;;;;2078305;28;20492;-62
2022/03/15 01:05:32;;;;;;;49.92;28.02;;;;;;;;;;2078779;28;20041;-62
2022/03/15 01:06:51;;;;;;;51.53;27.80;;;;;;;;;;2078906;28;20061;-62
2022/03/15 01:08:10;;;;;;;45.10;27.60;;;;;;;;;;2080435;28;20064;-62
2022/03/15 01:09:29;;;;;;;44.88;27.63;;;;;;;;;;2076057;28;20041;-63
2022/03/15 01:10:49;;;;;;;51.30;27.50;;;;;;;;;;2077339;28;20081;-62
2022/03/15 01:12:08;;;;;;;45.17;27.98;;;;;;;;;;2079317;28;20022;-62
2022/03/15 01:13:27;;;;;;;47.88;28.23;;;;;;;;;;2078951;28;20098;-61
2022/03/15 01:14:46;;;;;;;49.50;28.10;;;;;;;;;;2078676;28;20033;-62
2022/03/15 01:16:05;;;;;;;46.58;26.73;;;;;;;;;;2079608;28;20395;-62
2022/03/15 01:17:25;;;;;;;46.22;28.08;;;;;;;;;;2078999;28;20442;-62
2022/03/15 01:18:44;;;;;;;58.20;31.25;;;;;;;;;;2079148;28;20064;-62
2022/03/15 01:20:04;;;;;;;72.25;39.40;;;;;;;;;;2078056;28;20021;-64
2022/03/15 01:21:24;;;;;;;55.28;31.48;;;;;;;;;;2079896;28;20499;-62
2022/03/15 01:22:43;;;;;;;57.92;31.88;;;;;;;;;;2077913;28;20037;-61
2022/03/15 01:24:03;;;;;;;74.93;39.13;;;;;;;;;;2079518;28;20141;-61
2022/03/15 01:25:21;;;;;;;65.40;34.85;;;;;;;;;;2078530;28;20483;-61
2022/03/15 01:26:40;;;;;;;51.15;29.35;;;;;;;;;;2078880;28;20033;-61
2022/03/15 01:28:00;;;;;;;51.10;29.77;;;;;;;;;;2079891;28;20149;-62
2022/03/15 01:29:20;;;;;;;58.17;33.25;;;;;;;;;;2080168;28;20030;-64
2022/03/15 01:30:38;;;;;;;54.33;30.23;;;;;;;;;;2076449;28;20072;-64
2022/03/15 01:31:59;;;;;;;59.72;32.35;;;;;;;;;;2078275;28;20065;-64
2022/03/15 01:33:18;;;;;;;56.72;32.28;;;;;;;;;;2078863;28;20450;-64
2022/03/15 01:34:37;;;;;;;60.85;32.40;;;;;;;;;;2078766;28;20030;-63
2022/03/15 01:35:56;;;;;;;56.58;31.70;;;;;;;;;;2080416;28;20030;-64
2022/03/15 01:37:15;;;;;;;51.67;28.52;;;;;;;;;;2080392;28;20029;-63
2022/03/15 01:38:35;;;;;;;54.83;30.85;;;;;;;;;;2075532;28;20026;-63
2022/03/15 01:39:54;;;;;;;55.50;30.83;;;;;;;;;;2078635;28;20041;-62
2022/03/15 01:41:13;;;;;;;53.80;31.20;;;;;;;;;;2079518;28;20559;-64
2022/03/15 01:42:32;;;;;;;53.67;30.38;;;;;;;;;;2076388;28;20532;-64
2022/03/15 01:43:51;;;;;;;57.22;31.55;;;;;;;;;;2079358;28;20033;-66
2022/03/15 01:45:10;;;;;;;55.97;31.33;;;;;;;;;;2076123;28;20021;-62
2022/03/15 01:46:29;;;;;;;53.45;30.98;;;;;;;;;;2077673;28;20503;-62
2022/03/15 01:47:48;;;;;;;51.28;32.33;;;;;;;;;;2079941;28;20067;-62
2022/03/15 01:49:07;;;;;;;51.85;30.00;;;;;;;;;;2079457;28;20021;-62
2022/03/15 01:50:26;;;;;;;54.35;31.83;;;;;;;;;;2079963;28;20046;-63
2022/03/15 01:51:46;;;;;;;56.25;31.52;;;;;;;;;;2080024;28;20468;-62
2022/03/15 01:53:05;;;;;;;53.00;32.50;;;;;;;;;;2079875;28;20025;-63
2022/03/15 01:54:24;;;;;;;57.75;33.30;;;;;;;;;;2081536;28;20037;-62
2022/03/15 01:55:43;;;;;;;50.47;30.77;;;;;;;;;;2080285;28;20164;-63
2022/03/15 01:57:03;;;;;;;58.25;33.38;;;;;;;;;;2078898;28;20021;-64
2022/03/15 01:58:22;;;;;;;60.28;32.35;;;;;;;;;;2082216;28;20100;-63
2022/03/15 01:59:41;;;;;;;55.58;33.65;;;;;;;;;;2082004;28;20029;-63
2022/03/15 02:01:01;;;;;;;60.40;32.10;;;;;;;;;;2078345;28;20041;-64
2022/03/15 02:02:20;;;;;;;60.58;32.85;;;;;;;;;;2078803;28;20026;-62
2022/03/15 02:03:40;;;;;;;59.70;32.70;;;;;;;;;;2079784;28;20025;-62
2022/03/15 02:04:59;;;;;;;56.05;32.30;;;;;;;;;;2081003;28;20029;-63
2022/03/15 02:06:17;;;;;;;55.08;32.38;;;;;;;;;;2080292;28;20034;-62
2022/03/15 02:07:37;;;;;;;56.65;32.78;;;;;;;;;;2080125;28;20030;-64
2022/03/15 02:08:56;;;;;;;60.13;35.15;;;;;;;;;;2080137;28;20068;-64
2022/03/15 02:10:15;;;;;;;58.45;34.33;;;;;;;;;;2082037;28;20053;-64
2022/03/15 02:11:35;;;;;;;62.30;33.95;;;;;;;;;;2081136;28;20037;-63
2022/03/15 02:12:54;;;;;;;64.47;34.83;;;;;;;;;;2078776;28;20026;-64
2022/03/15 02:14:13;;;;;;;64.28;34.92;;;;;;;;;;2080816;28;20037;-63
2022/03/15 02:15:32;;;;;;;61.85;34.30;;;;;;;;;;2079784;28;20026;-64
2022/03/15 02:16:51;;;;;;;61.95;35.70;;;;;;;;;;2078910;28;20038;-63
2022/03/15 02:18:10;;;;;;;57.95;33.67;;;;;;;;;;2080320;28;20112;-62
2022/03/15 02:19:29;;;;;;;59.35;34.13;;;;;;;;;;2081084;28;20041;-63
2022/03/15 02:20:48;;;;;;;63.70;35.63;;;;;;;;;;2079026;28;20034;-63
2022/03/15 02:22:07;;;;;;;65.72;35.70;;;;;;;;;;2078490;28;20037;-63
2022/03/15 02:23:26;;;;;;;60.03;34.80;;;;;;;;;;2079969;28;20030;-64
2022/03/15 02:24:45;;;;;;;60.88;34.13;;;;;;;;;;2081066;28;20025;-64
2022/03/15 02:26:04;;;;;;;61.70;33.78;;;;;;;;;;2079984;28;20038;-62
2022/03/15 02:27:24;;;;;;;56.53;33.97;;;;;;;;;;2080498;28;20780;-62
2022/03/15 02:28:43;;;;;;;62.40;34.10;;;;;;;;;;2080517;28;20101;-64
2022/03/15 02:30:05;;;;;;;58.72;33.10;;;;;;;;;;2079814;28;20092;-63
2022/03/15 02:31:24;;;;;;;57.90;33.58;;;;;;;;;;2078002;28;20120;-64
2022/03/15 02:32:44;;;;;;;63.53;33.72;;;;;;;;;;2079606;28;20034;-61
2022/03/15 02:34:03;;;;;;;62.75;33.95;;;;;;;;;;2081654;28;20139;-62
2022/03/15 02:35:22;;;;;;;64.32;34.05;;;;;;;;;;2080605;28;20017;-62
2022/03/15 02:36:42;;;;;;;61.42;34.35;;;;;;;;;;2079660;28;20045;-62
2022/03/15 02:38:01;;;;;;;60.28;34.00;;;;;;;;;;2078806;28;20531;-64
2022/03/15 02:39:20;;;;;;;60.35;34.72;;;;;;;;;;2080090;28;20503;-62
2022/03/15 02:40:39;;;;;;;60.33;33.45;;;;;;;;;;2080030;28;20041;-64
2022/03/15 02:41:58;;;;;;;64.35;33.35;;;;;;;;;;2080019;28;20033;-63
2022/03/15 02:43:17;;;;;;;68.20;33.63;;;;;;;;;;2080101;28;20029;-64
2022/03/15 02:44:36;;;;;;;59.17;32.95;;;;;;;;;;2078351;28;20037;-63
2022/03/15 02:45:55;;;;;;;62.08;34.28;;;;;;;;;;2075652;28;20480;-64
2022/03/15 02:47:14;;;;;;;58.15;32.90;;;;;;;;;;2078874;28;20159;-64
2022/03/15 02:48:34;;;;;;;68.97;35.70;;;;;;;;;;2079844;28;20546;-64
2022/03/15 02:49:53;;;;;;;68.30;34.65;;;;;;;;;;2080937;28;20030;-64
2022/03/15 02:51:15;;;;;;;59.92;33.88;;;;;;;;;;2078323;28;20029;-63
2022/03/15 02:52:34;;;;;;;65.60;34.47;;;;;;;;;;2080238;28;20029;-63
2022/03/15 02:53:56;;;;;;;58.47;32.92;;;;;;;;;;2078551;28;20033;-62
2022/03/15 02:55:17;;;;;;;56.25;32.80;;;;;;;;;;2079515;28;20554;-63
2022/03/15 02:56:39;;;;;;;55.85;32.35;;;;;;;;;;2080270;28;20033;-63
2022/03/15 02:57:59;;;;;;;54.92;31.67;;;;;;;;;;2079921;28;20132;-63
2022/03/15 02:59:19;;;;;;;61.40;32.88;;;;;;;;;;2080726;28;20034;-63
2022/03/15 03:00:39;;;;;;;54.30;30.70;;;;;;;;;;2079856;28;20034;-64
2022/03/15 03:01:58;;;;;;;57.40;33.25;;;;;;;;;;2077141;28;20033;-63
2022/03/15 03:03:17;;;;;;;57.63;31.98;;;;;;;;;;2079140;28;20053;-63
2022/03/15 03:04:36;;;;;;;56.90;32.42;;;;;;;;;;2080406;28;20489;-63
2022/03/15 03:05:55;;;;;;;54.00;30.85;;;;;;;;;;2080510;28;20033;-63
2022/03/15 03:07:17;;;;;;;59.65;30.80;;;;;;;;;;2078833;28;20515;-62
2022/03/15 03:08:36;;;;;;;60.22;31.95;;;;;;;;;;2080740;28;20025;-63
2022/03/15 03:09:55;;;;;;;60.67;32.63;;;;;;;;;;2081830;28;20029;-62
2022/03/15 03:11:13;;;;;;;61.67;33.10;;;;;;;;;;2080174;28;20061;-62
2022/03/15 03:12:32;;;;;;;63.08;33.35;;;;;;;;;;2079218;28;20037;-63
2022/03/15 03:13:54;;;;;;;62.00;33.08;;;;;;;;;;2077670;28;20113;-62
2022/03/15 03:15:13;;;;;;;55.00;31.20;;;;;;;;;;2072890;28;20038;-63
2022/03/15 03:16:32;;;;;;;61.08;33.10;;;;;;;;;;2079319;28;20084;-62
2022/03/15 03:17:52;;;;;;;58.45;32.70;;;;;;;;;;2081037;28;20692;-63
2022/03/15 03:19:11;;;;;;;61.10;32.47;;;;;;;;;;2080369;28;20468;-63
2022/03/15 03:20:30;;;;;;;62.15;34.75;;;;;;;;;;2078966;28;20029;-64
2022/03/15 03:21:49;;;;;;;58.53;33.33;;;;;;;;;;2078229;28;20033;-62
2022/03/15 03:23:09;;;;;;;59.40;33.78;;;;;;;;;;2078205;28;20033;-63
2022/03/15 03:24:28;;;;;;;60.38;33.55;;;;;;;;;;2079634;28;20037;-63
2022/03/15 03:25:47;;;;;;;59.88;31.90;;;;;;;;;;2081066;28;20034;-63
2022/03/15 03:27:07;;;;;;;58.28;31.38;;;;;;;;;;2075471;28;20068;-63
2022/03/15 03:28:33;;;;;;;61.22;32.72;;;;;;;;;;2079057;28;20030;-63
2022/03/15 03:29:52;;;;;;;64.43;33.42;;;;;;;;;;2079986;28;20025;-63
2022/03/15 03:31:11;;;;;;;59.22;32.55;;;;;;;;;;2079158;28;20037;-63
2022/03/15 03:32:31;;;;;;;64.13;34.30;;;;;;;;;;2078886;28;20033;-63
2022/03/15 03:33:50;;;;;;;60.00;32.05;;;;;;;;;;2080028;28;20108;-63
2022/03/15 03:35:09;;;;;;;56.75;31.20;;;;;;;;;;2079909;28;20029;-63
2022/03/15 03:36:31;;;;;;;54.92;31.65;;;;;;;;;;2079142;28;20384;-63
2022/03/15 03:37:49;;;;;;;54.60;31.27;;;;;;;;;;2077001;28;20416;-62
2022/03/15 03:39:09;;;;;;;56.22;31.65;;;;;;;;;;2080607;28;20041;-63
2022/03/15 03:40:27;;;;;;;59.88;33.08;;;;;;;;;;2080869;28;20025;-63
2022/03/15 03:41:47;;;;;;;62.28;31.92;;;;;;;;;;2078359;28;20446;-64
2022/03/15 03:43:06;;;;;;;61.75;31.98;;;;;;;;;;2079808;28;20104;-63
2022/03/15 03:44:25;;;;;;;53.47;31.00;;;;;;;;;;2080458;28;20529;-63
2022/03/15 03:45:44;;;;;;;56.75;31.80;;;;;;;;;;2080832;28;20085;-62
2022/03/15 03:47:03;;;;;;;62.67;31.45;;;;;;;;;;2079190;28;20045;-62
2022/03/15 03:48:23;;;;;;;60.33;32.58;;;;;;;;;;2080496;28;20029;-63
2022/03/15 03:49:43;;;;;;;53.45;31.50;;;;;;;;;;2080055;28;20029;-63
2022/03/15 03:51:02;;;;;;;61.50;33.17;;;;;;;;;;2080946;28;20037;-63
2022/03/15 03:52:21;;;;;;;55.08;31.55;;;;;;;;;;2077762;28;20056;-63
2022/03/15 03:53:40;;;;;;;55.63;30.65;;;;;;;;;;2079936;28;20022;-63
2022/03/15 03:55:00;;;;;;;59.40;32.97;;;;;;;;;;2079432;28;20518;-63
2022/03/15 03:56:19;;;;;;;63.78;34.25;;;;;;;;;;2079566;28;20539;-63
2022/03/15 03:57:38;;;;;;;62.30;32.55;;;;;;;;;;2079476;28;21050;-63
2022/03/15 03:58:56;;;;;;;59.15;32.42;;;;;;;;;;2079437;28;20505;-63
2022/03/15 04:00:16;;;;;;;65.20;31.95;;;;;;;;;;2078882;28;20100;-63
2022/03/15 04:01:35;;;;;;;62.05;32.95;;;;;;;;;;2080171;28;20037;-63
2022/03/15 04:02:57;;;;;;;65.43;32.88;;;;;;;;;;2079316;28;20559;-63
2022/03/15 04:04:16;;;;;;;60.42;31.92;;;;;;;;;;2080477;28;20116;-62
2022/03/15 04:05:36;;;;;;;61.13;33.10;;;;;;;;;;2080883;28;20026;-63
2022/03/15 04:06:55;;;;;;;61.13;32.42;;;;;;;;;;2079501;28;20410;-62
2022/03/15 04:08:15;;;;;;;57.85;32.28;;;;;;;;;;2079551;28;20021;-62
2022/03/15 04:09:34;;;;;;;63.42;32.30;;;;;;;;;;2080303;28;20025;-63
2022/03/15 04:10:53;;;;;;;59.97;32.58;;;;;;;;;;2080074;28;20025;-63
2022/03/15 04:12:12;;;;;;;63.83;33.40;;;;;;;;;;2078769;28;20021;-63
2022/03/15 04:13:32;;;;;;;60.60;32.75;;;;;;;;;;2079426;28;20121;-63
2022/03/15 04:14:53;;;;;;;57.08;31.35;;;;;;;;;;2080110;28;20025;-63
2022/03/15 04:16:11;;;;;;;56.67;31.27;;;;;;;;;;2080378;28;20025;-63
2022/03/15 04:17:31;;;;;;;57.30;31.83;;;;;;;;;;2079420;28;20045;-61
2022/03/15 04:18:49;;;;;;;60.53;33.10;;;;;;;;;;2080224;28;20042;-63
2022/03/15 04:20:09;;;;;;;61.67;33.10;;;;;;;;;;2079588;28;20126;-64
2022/03/15 04:21:28;;;;;;;58.60;31.25;;;;;;;;;;2080179;28;20380;-62
2022/03/15 04:22:47;;;;;;;58.97;32.42;;;;;;;;;;2078786;28;20030;-63
2022/03/15 04:24:06;;;;;;;59.47;32.33;;;;;;;;;;2079794;28;20025;-62
2022/03/15 04:25:25;;;;;;;61.15;32.92;;;;;;;;;;2080568;28;20022;-63
2022/03/15 04:26:45;;;;;;;57.28;31.02;;;;;;;;;;2078782;28;20571;-62
2022/03/15 04:28:04;;;;;;;61.58;31.10;;;;;;;;;;2078615;28;20030;-62
2022/03/15 04:29:23;;;;;;;60.53;31.33;;;;;;;;;;2078047;28;20034;-63
2022/03/15 04:30:42;;;;;;;61.35;32.90;;;;;;;;;;2080009;28;20112;-62
2022/03/15 04:32:01;;;;;;;60.00;30.17;;;;;;;;;;2079658;28;20033;-62
2022/03/15 04:33:20;;;;;;;59.67;30.25;;;;;;;;;;2078206;28;20045;-62
2022/03/15 04:34:39;;;;;;;55.90;30.30;;;;;;;;;;2078720;28;20038;-64
2022/03/15 04:35:58;;;;;;;59.42;30.58;;;;;;;;;;2077908;28;20459;-62
2022/03/15 04:37:19;;;;;;;61.75;32.05;;;;;;;;;;2079748;28;20026;-62
2022/03/15 04:38:38;;;;;;;58.95;32.53;;;;;;;;;;2077358;28;20112;-61
2022/03/15 04:39:58;;;;;;;63.42;31.55;;;;;;;;;;2079674;28;20061;-61
2022/03/15 04:41:17;;;;;;;64.53;32.90;;;;;;;;;;2079618;28;20068;-63
2022/03/15 04:42:36;;;;;;;60.75;32.78;;;;;;;;;;2079226;28;20030;-63
2022/03/15 04:43:54;;;;;;;58.63;31.05;;;;;;;;;;2078893;28;20037;-64
2022/03/15 04:45:14;;;;;;;55.53;30.98;;;;;;;;;;2079699;28;20034;-62
2022/03/15 04:46:33;;;;;;;59.92;31.90;;;;;;;;;;2079352;28;20121;-63
2022/03/15 04:47:52;;;;;;;57.35;31.55;;;;;;;;;;2078612;28;20455;-61
2022/03/15 04:49:10;;;;;;;56.10;30.23;;;;;;;;;;2079623;28;20034;-62
2022/03/15 04:50:30;;;;;;;61.97;31.65;;;;;;;;;;2077812;28;20112;-63
2022/03/15 04:51:49;;;;;;;60.63;30.75;;;;;;;;;;2079123;28;20029;-62
2022/03/15 04:53:08;;;;;;;52.92;30.75;;;;;;;;;;2079848;28;20344;-61
2022/03/15 04:54:28;;;;;;;55.92;30.60;;;;;;;;;;2079006;28;20119;-62
2022/03/15 04:55:48;;;;;;;59.83;31.42;;;;;;;;;;2079488;28;20026;-62
2022/03/15 04:57:07;;;;;;;55.42;30.25;;;;;;;;;;2080019;28;20055;-62
2022/03/15 04:58:26;;;;;;;51.65;28.92;;;;;;;;;;2079056;28;20120;-62
2022/03/15 04:59:45;;;;;;;53.25;28.73;;;;;;;;;;2080205;28;20033;-63
2022/03/15 05:01:04;;;;;;;53.20;29.63;;;;;;;;;;2080541;28;20026;-63
2022/03/15 05:02:24;;;;;;;56.42;30.10;;;;;;;;;;2076715;28;20029;-62
2022/03/15 05:03:45;;;;;;;56.90;29.25;;;;;;;;;;2077875;28;20025;-63
2022/03/15 05:05:04;;;;;;;51.70;28.23;;;;;;;;;;2078337;28;20621;-62
2022/03/15 05:06:23;;;;;;;48.22;28.58;;;;;;;;;;2079936;28;20121;-63
2022/03/15 05:07:42;;;;;;;58.38;28.98;;;;;;;;;;2079278;28;20029;-62
2022/03/15 05:09:01;;;;;;;48.72;27.92;;;;;;;;;;2078457;28;20030;-62
2022/03/15 05:11:59;;;;;;;55.47;29.48;;;;;;;;;;2076561;28;20037;-63
2022/03/15 05:13:20;;;;;;;56.60;30.15;;;;;;;;;;2077168;28;20476;-62
2022/03/15 05:14:39;;;;;;;50.55;28.48;;;;;;;;;;2079077;28;20037;-61
2022/03/15 05:15:58;;;;;;;50.20;29.27;;;;;;;;;;2079599;28;20026;-61
2022/03/15 05:17:18;;;;;;;55.50;30.08;;;;;;;;;;2077111;28;20025;-63
2022/03/15 05:18:39;;;;;;;50.95;28.10;;;;;;;;;;2077160;28;20030;-63
2022/03/15 05:19:58;;;;;;;58.65;30.63;;;;;;;;;;2078348;28;20121;-63
2022/03/15 05:21:17;;;;;;;54.55;30.90;;;;;;;;;;2077801;28;20022;-64
2022/03/15 05:22:37;;;;;;;53.55;28.73;;;;;;;;;;2077851;28;20120;-64
2022/03/15 05:23:56;;;;;;;50.25;28.73;;;;;;;;;;2079097;28;20056;-63
2022/03/15 05:25:15;;;;;;;52.90;29.00;;;;;;;;;;2080841;28;20398;-65
2022/03/15 05:26:34;;;;;;;57.80;29.52;;;;;;;;;;2078335;28;20494;-64
2022/03/15 05:27:53;;;;;;;58.78;29.90;;;;;;;;;;2079605;28;20034;-64
2022/03/15 05:29:12;;;;;;;55.35;29.23;;;;;;;;;;2071187;28;20038;-65
2022/03/15 05:30:31;;;;;;;52.42;29.10;;;;;;;;;;2075213;28;20042;-65
2022/03/15 05:31:50;;;;;;;64.47;30.48;;;;;;;;;;2076368;28;20419;-65
2022/03/15 05:33:09;;;;;;;61.47;31.95;;;;;;;;;;2077211;28;20475;-65
2022/03/15 05:34:28;;;;;;;54.90;29.35;;;;;;;;;;2076809;28;20029;-65
2022/03/15 05:35:47;;;;;;;54.15;29.08;;;;;;;;;;2076881;28;20025;-66
2022/03/15 05:37:08;;;;;;;53.95;29.80;;;;;;;;;;2076885;28;20026;-65
2022/03/15 05:38:27;;;;;;;54.47;29.80;;;;;;;;;;2078998;28;20033;-65
2022/03/15 05:39:46;;;;;;;49.42;28.85;;;;;;;;;;2076702;28;20456;-66
2022/03/15 05:41:08;;;;;;;53.13;30.05;;;;;;;;;;2078290;28;20025;-64
2022/03/15 05:42:27;;;;;;;57.67;28.52;;;;;;;;;;2078127;28;20125;-66
2022/03/15 05:43:46;;;;;;;53.65;28.75;;;;;;;;;;2073825;28;20033;-65
2022/03/15 05:45:05;;;;;;;55.38;29.40;;;;;;;;;;2076079;28;20029;-65
2022/03/15 05:46:24;;;;;;;52.60;29.65;;;;;;;;;;2076800;28;20034;-66
2022/03/15 05:47:43;;;;;;;48.58;28.75;;;;;;;;;;2076802;28;20041;-66
2022/03/15 05:49:01;;;;;;;57.20;30.25;;;;;;;;;;2077423;28;20104;-66
2022/03/15 05:50:20;;;;;;;52.45;28.52;;;;;;;;;;2076173;28;20026;-65
2022/03/15 05:51:39;;;;;;;57.28;31.55;;;;;;;;;;2074482;28;20025;-65
2022/03/15 05:53:02;;;;;;;54.15;29.00;;;;;;;;;;2074480;28;20037;-65
2022/03/15 05:54:21;;;;;;;56.85;29.77;;;;;;;;;;2078126;28;20521;-65
2022/03/15 05:55:40;;;;;;;60.90;30.90;;;;;;;;;;2077966;28;20065;-67
2022/03/15 05:57:00;;;;;;;55.50;29.73;;;;;;;;;;2076804;28;20026;-67
2022/03/15 05:58:19;;;;;;;54.17;29.35;;;;;;;;;;2078311;28;20042;-66
2022/03/15 05:59:38;;;;;;;53.55;28.33;;;;;;;;;;2078617;28;20108;-67
2022/03/15 06:00:57;;;;;;;47.15;27.67;;;;;;;;;;2078797;28;20531;-68
2022/03/15 06:02:15;;;;;;;59.55;29.63;;;;;;;;;;2078334;28;20033;-67
2022/03/15 06:03:34;;;;;;;56.05;29.25;;;;;;;;;;2078170;28;20037;-66
2022/03/15 06:04:53;;;;;;;54.50;29.20;;;;;;;;;;2077510;28;20034;-68
2022/03/15 06:06:12;;;;;;;52.70;29.10;;;;;;;;;;2077990;28;20330;-67
2022/03/15 06:07:31;;;;;;;57.67;30.38;;;;;;;;;;2072629;28;20029;-67
2022/03/15 06:08:51;;;;;;;53.58;29.05;;;;;;;;;;2077721;28;20025;-67
2022/03/15 06:10:10;;;;;;;59.45;29.08;;;;;;;;;;2077345;28;20033;-68
2022/03/15 06:11:29;;;;;;;55.70;28.85;;;;;;;;;;2078787;28;20034;-67
2022/03/15 06:12:48;;;;;;;57.50;29.98;;;;;;;;;;2076868;28;20497;-67
2022/03/15 06:14:07;;;;;;;53.25;28.45;;;;;;;;;;2075813;28;20476;-67
2022/03/15 06:15:26;;;;;;;55.85;29.13;;;;;;;;;;2075104;28;20100;-67
2022/03/15 06:16:46;;;;;;;57.72;28.98;;;;;;;;;;2078431;28;20124;-66
2022/03/15 06:18:05;;;;;;;53.53;28.77;;;;;;;;;;2075030;28;20029;-67
2022/03/15 06:19:25;;;;;;;54.67;28.88;;;;;;;;;;2077521;28;20038;-67
2022/03/15 06:20:45;;;;;;;49.83;27.90;;;;;;;;;;2077649;28;20029;-66
2022/03/15 06:22:04;;;;;;;55.60;28.90;;;;;;;;;;2077359;28;20038;-67
2022/03/15 06:23:24;;;;;;;49.92;28.20;;;;;;;;;;2077756;28;20503;-67
2022/03/15 06:24:43;;;;;;;53.17;29.42;;;;;;;;;;2076453;28;20396;-66
2022/03/15 06:26:02;;;;;;;51.47;28.10;;;;;;;;;;2075822;28;20045;-67
2022/03/15 06:27:21;;;;;;;50.95;28.25;;;;;;;;;;2077664;28;20404;-66
2022/03/15 06:28:41;;;;;;;52.13;28.65;;;;;;;;;;2077783;28;20152;-66
2022/03/15 06:30:00;;;;;;;48.15;26.65;;;;;;;;;;2076109;28;20097;-66
2022/03/15 06:31:20;;;;;;;51.08;28.15;;;;;;;;;;2078022;28;20042;-66
2022/03/15 06:32:39;;;;;;;52.33;26.63;;;;;;;;;;2075721;28;20018;-66
2022/03/15 06:33:58;;;;;;;46.53;26.88;;;;;;;;;;2080297;28;20033;-66
2022/03/15 06:35:19;;;;;;;51.42;28.42;;;;;;;;;;2080023;28;20037;-67
2022/03/15 06:36:38;;;;;;;53.40;28.02;;;;;;;;;;2078510;28;20041;-66
2022/03/15 06:37:56;;;;;;;56.45;27.52;;;;;;;;;;2080026;28;20418;-66
2022/03/15 06:39:15;;;;;;;46.45;27.17;;;;;;;;;;2078078;28;20450;-66
2022/03/15 06:40:35;;;;;;;57.63;28.38;;;;;;;;;;2076423;28;20026;-66
2022/03/15 06:41:54;;;;;;;53.70;28.35;;;;;;;;;;2079669;28;20117;-67
2022/03/15 06:43:13;;;;;;;53.85;28.15;;;;;;;;;;2078541;28;20641;-66
2022/03/15 06:44:32;;;;;;;56.42;26.50;;;;;;;;;;2078310;28;20112;-66
2022/03/15 06:45:52;;;;;;;50.80;28.88;;;;;;;;;;2077116;28;20082;-66
2022/03/15 06:47:11;;;;;;;52.80;27.98;;;;;;;;;;2079094;28;20041;-66
2022/03/15 06:48:29;;;;;;;53.95;28.95;;;;;;;;;;2076786;28;20037;-66
2022/03/15 06:49:48;;;;;;;53.28;27.70;;;;;;;;;;2078035;28;20108;-66
2022/03/15 06:51:07;;;;;;;50.70;27.35;;;;;;;;;;2077243;28;20816;-66
2022/03/15 06:52:26;;;;;;;56.58;29.65;;;;;;;;;;2076433;28;20029;-66
2022/03/15 06:53:45;;;;;;;51.63;29.00;;;;;;;;;;2077739;28;20022;-67
2022/03/15 06:55:04;;;;;;;48.08;27.75;;;;;;;;;;2078155;28;20053;-65
2022/03/15 06:56:24;;;;;;;55.03;27.05;;;;;;;;;;2078753;28;20041;-68
2022/03/15 06:57:43;;;;;;;50.72;27.38;;;;;;;;;;2080021;28;20399;-69
2022/03/15 06:59:01;;;;;;;47.25;25.88;;;;;;;;;;2078984;28;20056;-67
2022/03/15 07:00:21;;;;;;;49.78;28.58;;;;;;;;;;2079572;28;20503;-67
2022/03/15 07:01:40;;;;;;;66.00;32.80;;;;;;;;;;2079301;28;20029;-67
2022/03/15 07:02:59;;;;;;;51.97;28.70;;;;;;;;;;2075996;28;20038;-67
2022/03/15 07:04:18;;;;;;;52.25;28.70;;;;;;;;;;2077998;28;20033;-66
2022/03/15 07:05:37;;;;;;;50.88;27.58;;;;;;;;;;2079719;28;20133;-66
2022/03/15 07:06:56;;;;;;;53.47;27.90;;;;;;;;;;2078827;28;20141;-67
2022/03/15 07:08:15;;;;;;;54.05;29.13;;;;;;;;;;2079280;28;20025;-66
2022/03/15 07:09:35;;;;;;;47.58;27.60;;;;;;;;;;2079482;28;20030;-66
2022/03/15 07:10:54;;;;;;;47.97;27.95;;;;;;;;;;2079284;28;20495;-66
2022/03/15 07:12:13;;;;;;;52.35;26.88;;;;;;;;;;2079663;28;20041;-66
2022/03/15 07:13:31;;;;;;;53.38;29.52;;;;;;;;;;2080310;28;20081;-66
2022/03/15 07:14:50;;;;;;;43.63;26.42;;;;;;;;;;2078071;28;20022;-67
2022/03/15 07:16:09;;;;;;;56.38;28.33;;;;;;;;;;2077466;28;20034;-66
2022/03/15 07:17:30;;;;;;;48.30;27.60;;;;;;;;;;2079328;28;20041;-66
2022/03/15 07:18:49;;;;;;;48.28;27.23;;;;;;;;;;2079052;28;20065;-66
2022/03/15 07:20:08;;;;;;;48.70;26.80;;;;;;;;;;2077552;28;20025;-65
2022/03/15 07:21:27;;;;;;;42.03;27.20;;;;;;;;;;2078604;28;20026;-65
2022/03/15 07:22:45;;;;;;;47.65;27.33;;;;;;;;;;2079924;28;20114;-66
2022/03/15 07:24:04;;;;;;;49.10;27.13;;;;;;;;;;2080023;28;20531;-66
2022/03/15 07:25:23;;;;;;;45.85;27.42;;;;;;;;;;2079566;28;20037;-66
2022/03/15 07:26:42;;;;;;;50.00;26.95;;;;;;;;;;2079638;28;20030;-66
2022/03/15 07:28:01;;;;;;;42.63;26.27;;;;;;;;;;2079181;28;20463;-66
2022/03/15 07:29:20;;;;;;;44.22;26.10;;;;;;;;;;2079710;28;20065;-66
2022/03/15 07:30:39;;;;;;;45.65;26.75;;;;;;;;;;2076196;28;20029;-65
2022/03/15 07:31:58;;;;;;;44.58;26.40;;;;;;;;;;2077010;28;20536;-66
2022/03/15 07:33:17;;;;;;;46.78;26.58;;;;;;;;;;2077157;28;20108;-66
2022/03/15 07:34:36;;;;;;;47.17;25.17;;;;;;;;;;2077146;28;20069;-66
2022/03/15 07:35:55;;;;;;;45.55;25.83;;;;;;;;;;2078075;28;20029;-66
2022/03/15 07:37:14;;;;;;;47.03;25.13;;;;;;;;;;2077689;28;20113;-66
2022/03/15 07:38:34;;;;;;;49.05;24.60;;;;;;;;;;2080572;28;20033;-67
2022/03/15 07:39:53;;;;;;;43.97;26.08;;;;;;;;;;2078880;28;20033;-66
2022/03/15 07:41:11;;;;;;;45.70;24.67;;;;;;;;;;2071835;28;20046;-66
2022/03/15 07:42:30;;;;;;;46.90;25.63;;;;;;;;;;2074647;28;20038;-66
2022/03/15 07:43:50;;;;;;;42.53;25.27;;;;;;;;;;2076235;28;20590;-66